Latest Weather Observations for Rowley Shoals

IDW60801

Issued at 5:02 pm WST Saturday 13 February 2016 (issued every 30 minutes, with the page automatically refreshed every 10 minutes)

About weather observations | Map of weather stations | Latest weather observations for WA | Other Formats
Station Details ID: 200713 Name: ROWLEY SHOALS Lat: -17.52 Lon: 118.95 Height: 0.0 m
Data from the previous 72 hours. | See also: Recent months at Rowley Shoals
Date/Time
WST
Temp
°C
App
Temp
°C
Dew
Point
Rel
Hum
%
Delta-T
°C
Wind Press
QNH
hPa
Press
MSL
hPa
Rain
since 9 am
mm
Dir
 
Spd
km/h
Gust
km/h
Spd
kts
Gust
kts
13/05:00pm 28.9 - - - - W 28 32 15 17 1006.9 1006.9 -
13/04:30pm 29.0 - - - - W 24 28 13 15 1007.1 1007.1 -
13/04:00pm 29.0 - - - - W 24 28 13 15 1007.3 1007.1 -
13/03:30pm 29.0 - - - - W 22 26 12 14 1007.5 1007.5 -
13/03:00pm 29.0 - - - - W 22 24 12 13 1007.7 1007.6 -
13/02:30pm 29.1 - - - - W 22 26 12 14 1008.2 1008.2 -
13/02:00pm 29.1 - - - - W 22 24 12 13 1008.5 1008.3 -
13/01:30pm 29.2 - - - - W 20 26 11 14 1008.4 1008.4 -
13/01:00pm 29.0 - - - - W 24 28 13 15 1008.5 1008.3 -
13/12:30pm 29.0 - - - - W 26 30 14 16 1008.7 1008.7 -
13/12:00pm 29.0 - - - - W 26 28 14 15 1009.1 1008.9 -
13/11:30am 29.0 - - - - WNW 22 28 12 15 1009.5 1009.5 -
13/11:00am 29.0 - - - - W 22 26 12 14 1009.7 1009.6 -
13/10:30am 29.1 - - - - W 22 26 12 14 1010.0 1010.0 -
13/10:00am 29.1 - - - - W 24 28 13 15 1010.3 1010.2 -
13/09:30am 29.0 - - - - W 22 28 12 15 1010.4 1010.4 -
13/09:00am 28.9 - - - - WNW 20 24 11 13 1010.8 1010.6 -
13/08:30am 28.8 - - - - W 22 26 12 14 1010.7 1010.7 -
13/08:00am 28.8 - - - - W 22 26 12 14 1010.6 1010.6 -
13/07:30am 28.7 - - - - WNW 19 22 10 12 1010.6 1010.6 -
13/07:00am 28.6 - - - - WNW 19 22 10 12 1010.3 1010.1 -
13/06:30am 28.6 - - - - W 24 28 13 15 1009.7 1009.7 -
13/06:00am 28.5 - - - - W 26 28 14 15 1009.1 1009.4 -
13/05:30am 28.6 - - - - WNW 24 30 13 16 1008.7 1008.7 -
13/05:00am 28.5 - - - - WNW 24 30 13 16 1008.4 1008.4 -
13/04:30am 28.4 - - - - W 28 32 15 17 1008.0 1008.0 -
13/04:00am 28.5 - - - - WNW 26 32 14 17 1008.1 1007.9 -
13/03:30am 28.6 - - - - WNW 24 28 13 15 1008.1 1008.1 -
13/03:00am 28.7 - - - - WNW 26 32 14 17 1007.8 1007.6 -
13/02:30am 28.6 - - - - WNW 26 32 14 17 1007.6 1007.6 -
13/02:00am 28.5 - - - - WNW 24 28 13 15 1007.3 1007.3 -
13/01:30am 28.7 - - - - NW 28 30 15 16 1007.7 1007.7 -
13/01:00am 28.6 - - - - NW 26 32 14 17 1008.0 1007.8 -
13/12:30am 28.6 - - - - NNW 26 30 14 16 1008.2 1008.2 -
13/12:00am 28.7 - - - - NW 33 39 18 21 1007.9 1008.4 -
 
Date/Time
WST
Temp
°C
App
Temp
°C
Dew
Point
Rel
Hum
%
Delta-T
°C
Wind Press
QNH
hPa
Press
MSL
hPa
Rain
since 9 am
mm
Dir
 
Spd
km/h
Gust
km/h
Spd
kts
Gust
kts
12/11:30pm 28.6 - - - - WNW 33 37 18 20 1007.7 1007.7 -
12/11:00pm 28.6 - - - - WNW 33 37 18 20 1007.9 1007.6 -
12/10:30pm 28.6 - - - - WNW 32 35 17 19 1008.3 1008.3 -
12/10:00pm 28.7 - - - - WNW 26 30 14 16 1008.7 1008.5 -
12/09:30pm 28.6 - - - - NW 26 30 14 16 1008.7 1008.7 -
12/09:00pm 28.5 - - - - WNW 24 26 13 14 1008.4 1008.4 -
12/08:30pm 28.7 - - - - WNW 24 28 13 15 1008.0 1008.0 -
12/08:00pm 28.7 - - - - WNW 24 28 13 15 1008.1 1008.0 -
12/07:30pm 28.8 - - - - WNW 24 28 13 15 1007.7 1007.7 -
12/07:00pm 28.8 - - - - WNW 24 28 13 15 1007.2 1007.1 -
12/06:30pm 29.0 - - - - WNW 24 28 13 15 1006.9 1006.9 -
12/06:00pm 28.9 - - - - WNW 24 26 13 14 1006.5 1006.6 -
12/05:30pm 29.1 - - - - WNW 24 26 13 14 1006.2 1006.2 -
12/05:00pm 29.1 - - - - WNW 22 26 12 14 1005.9 1005.9 -
12/04:30pm 29.3 - - - - WNW 20 24 11 13 1005.5 1005.5 -
12/04:00pm 29.1 - - - - WNW 20 24 11 13 1005.5 1005.4 -
12/03:30pm 29.1 - - - - NW 20 24 11 13 1005.8 1005.8 -
12/03:00pm 29.2 - - - - WNW 22 28 12 15 1005.7 1005.8 -
12/02:30pm 29.2 - - - - WNW 26 30 14 16 1005.6 1005.6 -
12/02:00pm 29.4 - - - - WNW 26 28 14 15 1005.9 1005.8 -
12/01:30pm 29.2 - - - - WNW 20 24 11 13 1006.2 1006.2 -
12/01:00pm 29.3 - - - - WNW 17 20 9 11 1006.7 1006.5 -
12/12:30pm 29.2 - - - - NW 17 20 9 11 1007.0 1007.0 -
12/12:00pm 29.1 - - - - WNW 17 20 9 11 1007.1 1006.9 -
12/11:30am 29.1 - - - - WNW 19 20 10 11 1007.1 1007.1 -
12/11:00am 29.0 - - - - WNW 15 17 8 9 1007.6 1007.1 -
12/10:30am 28.8 - - - - WNW 15 17 8 9 1008.0 1008.0 -
12/10:00am 29.1 - - - - WNW 13 15 7 8 1008.3 1008.2 -
12/09:30am 29.1 - - - - NW 9 11 5 6 1008.9 1008.9 -
12/09:00am 29.1 - - - - WNW 9 11 5 6 1008.9 1008.8 -
12/08:30am 28.8 - - - - W 9 11 5 6 1009.1 1009.1 -
12/08:00am 28.6 - - - - SW 13 17 7 9 1008.8 1008.9 -
12/07:30am 28.4 - - - - SW 15 17 8 9 1009.1 1009.1 -
12/07:00am 28.4 - - - - WSW 17 20 9 11 1008.8 1008.7 -
12/06:30am 28.2 - - - - WSW 20 24 11 13 1008.4 1008.4 -
12/06:00am 28.3 - - - - W 20 24 11 13 1008.3 1008.3 -
12/05:30am 28.3 - - - - W 24 28 13 15 1007.7 1007.7 -
12/05:00am 28.4 - - - - WSW 19 22 10 12 1007.9 1007.8 -
12/04:30am 28.4 - - - - WSW 22 26 12 14 1007.5 1007.5 -
12/04:00am 28.4 - - - - W 15 19 8 10 1007.7 1007.5 -
12/03:30am 28.4 - - - - WNW 15 20 8 11 1007.1 1007.1 -
12/03:00am 28.4 - - - - W 20 24 11 13 1006.6 1006.6 -
12/02:30am 28.4 - - - - W 22 28 12 15 1006.4 1006.4 -
12/02:00am 28.5 - - - - W 20 24 11 13 1006.4 1006.1 -
12/01:30am 28.5 - - - - W 24 26 13 14 1006.6 1006.6 -
12/01:00am 28.6 - - - - W 22 26 12 14 1006.6 1006.3 -
12/12:30am 28.6 - - - - W 22 26 12 14 1007.0 1007.0 -
12/12:00am 28.6 - - - - W 26 28 14 15 1007.1 1006.9 -
 
Date/Time
WST
Temp
°C
App
Temp
°C
Dew
Point
Rel
Hum
%
Delta-T
°C
Wind Press
QNH
hPa
Press
MSL
hPa
Rain
since 9 am
mm
Dir
 
Spd
km/h
Gust
km/h
Spd
kts
Gust
kts
11/11:30pm 28.6 - - - - WNW 26 30 14 16 1007.0 1007.0 -
11/11:00pm 28.6 - - - - WNW 26 28 14 15 1007.6 1007.2 -
11/10:30pm 28.7 - - - - WNW 26 30 14 16 1007.4 1007.4 -
11/10:00pm 28.7 - - - - NW 28 30 15 16 1007.4 1007.3 -
11/09:30pm 28.8 - - - - NW 24 28 13 15 1007.5 1007.5 -
11/09:00pm 28.9 - - - - WNW 24 26 13 14 1007.4 1007.3 -
11/08:30pm 28.8 - - - - WNW 22 24 12 13 1007.2 1007.2 -
11/08:00pm 28.8 - - - - WNW 19 22 10 12 1007.2 1007.1 -
11/07:30pm 28.8 - - - - WNW 15 17 8 9 1007.1 1007.1 -
11/07:00pm 28.7 - - - - WNW 13 15 7 8 1006.6 1006.6 -
11/06:30pm 29.0 - - - - WNW 13 13 7 7 1006.2 1006.2 -
11/06:00pm 29.2 - - - - W 9 9 5 5 1006.2 1006.1 -
11/05:30pm 29.5 - - - - W 7 9 4 5 1006.0 1006.0 -
11/05:00pm 29.8 - - - - W 7 9 4 5 1005.7 1005.7 -
11/04:30pm 29.6 - - - - W 9 13 5 7 1005.8 1005.8 -
11/04:00pm 29.5 - - - - W 11 15 6 8 1005.3 1005.3 -
11/03:30pm 29.1 - - - - WSW 13 15 7 8 1005.2 1005.2 -
11/03:00pm 29.1 - - - - WSW 13 17 7 9 1005.5 1005.3 -
11/02:30pm 29.0 - - - - W 17 17 9 9 1005.4 1005.4 -
11/02:00pm 29.0 - - - - W 15 17 8 9 1005.7 1005.5 -
11/01:30pm 28.8 - - - - W 17 20 9 11 1005.9 1005.9 -
11/01:00pm 28.8 - - - - WSW 20 22 11 12 1006.0 1005.8 -
11/12:30pm 28.8 - - - - WSW 20 22 11 12 1006.3 1006.3 -
11/12:00pm 28.7 - - - - WSW 19 20 10 11 1006.6 1006.4 -
11/11:30am 28.6 - - - - WSW 15 17 8 9 1007.1 1007.1 -
11/11:00am 28.6 - - - - WSW 17 19 9 10 1007.4 1007.2 -
11/10:30am 28.5 - - - - W 13 17 7 9 1007.8 1007.8 -
11/10:00am 28.6 - - - - W 11 13 6 7 1008.1 1008.0 -
11/09:30am 28.9 - - - - W 13 17 7 9 1008.3 1008.3 -
11/09:00am 28.8 - - - - WSW 13 17 7 9 1008.3 1008.3 -
11/08:30am 28.4 - - - - WSW 22 26 12 14 1007.8 1007.8 -
11/08:00am 28.4 - - - - WSW 20 24 11 13 1008.0 1007.8 -
11/07:30am 28.3 - - - - WSW 15 17 8 9 1008.3 1008.3 -
11/07:00am 28.2 - - - - WSW 17 20 9 11 1008.0 1008.1 -
11/06:30am 28.1 - - - - WSW 19 24 10 13 1007.7 1007.7 -
11/06:00am 28.2 - - - - WSW 20 24 11 13 1007.7 1007.8 -
11/05:30am 28.2 - - - - WSW 24 28 13 15 1007.5 1007.5 -
11/05:00am 28.2 - - - - WSW 24 30 13 16 1006.9 1007.1 -
11/04:30am 28.2 - - - - WSW 26 28 14 15 1006.9 1006.9 -
11/04:00am 28.3 - - - - WSW 22 26 12 14 1007.1 1006.8 -
11/03:30am 28.3 - - - - WSW 22 26 12 14 1006.7 1006.7 -
11/03:00am 28.3 - - - - WSW 20 22 11 12 1006.7 1006.5 -
11/02:30am 28.4 - - - - WSW 20 22 11 12 1006.7 1006.7 -
11/02:00am 28.4 - - - - W 20 22 11 12 1006.7 1006.6 -
11/01:30am 28.4 - - - - WSW 20 24 11 13 1006.5 1006.5 -
11/01:00am 28.4 - - - - W 20 24 11 13 1006.6 1006.5 -
11/12:30am 28.6 - - - - W 22 26 12 14 1006.7 1006.7 -
11/12:00am 28.5 - - - - W 24 28 13 15 1006.9 1006.7 -
 
Date/Time
WST
Temp
°C
App
Temp
°C
Dew
Point
Rel
Hum
%
Delta-T
°C
Wind Press
QNH
hPa
Press
MSL
hPa
Rain
since 9 am
mm
Dir
 
Spd
km/h
Gust
km/h
Spd
kts
Gust
kts
10/11:30pm 28.5 - - - - W 24 28 13 15 1007.2 1007.2 -
10/11:00pm 28.6 - - - - W 28 32 15 17 1007.4 1007.1 -
10/10:30pm 28.7 - - - - W 26 32 14 17 1007.6 1007.6 -
10/10:00pm 28.7 - - - - W 26 30 14 16 1007.7 1007.6 -
10/09:30pm 28.9 - - - - W 26 30 14 16 1007.8 1007.8 -
10/09:00pm 28.8 - - - - WNW 26 30 14 16 1007.6 1007.6 -
10/08:30pm 28.9 - - - - WNW 24 28 13 15 1007.5 1007.5 -
10/08:00pm 29.0 - - - - WNW 26 30 14 16 1007.2 1007.4 -
10/07:30pm 28.9 - - - - WNW 22 26 12 14 1007.1 1007.1 -
10/07:00pm 28.9 - - - - WNW 20 24 11 13 1006.9 1006.9 -
10/06:30pm 29.0 - - - - WNW 19 20 10 11 1006.9 1006.9 -
10/06:00pm 29.2 - - - - WNW 17 19 9 10 1006.9 1006.8 -
10/05:30pm 29.4 - - - - WNW 17 19 9 10 1006.6 1006.6 -

Other Formats:

Comma delimited format used in spreadsheet applications
http://www.bom.gov.au/fwo/IDW60801/IDW60801.94207.axf

JavaScript Object Notation format (JSON) in row-major order
http://www.bom.gov.au/fwo/IDW60801/IDW60801.94207.json